Terminal Aerodrome Forecast
Issued by NWS Wakefield, VA

Home | Current Version | Previous Version | Text Only | Print | Product List | Glossary On
Versions: 1 2 3 4 5 6 7 8 9 10 11 12 13 14
566
FTUS41 KAKQ 241726
TAFRIC
TAF
KRIC 241726Z 2418/2518 22011G19KT P6SM BKN120
     FM250300 22007KT P6SM SCT200=

USA.gov is the U.S. government's official web portal to all federal, state and local government web resources and services.